Погода Сарафовона 2 недели

Бургас, Болгария

13 - 26 июля
  • 13июля
    Сегодня
    +21°
    +31°
    Ясно и безоблачно
    ВремяПогодаТемператураВлажностьДавлениеВетер, м/сВероятность осадков
    00:00Ясно и безоблачно+26°C78 %756 мм1.1 м/с2 %
    03:00Ясно и безоблачно+24°C79 %755 мм1.8 м/с2 %
    06:00Ясно и безоблачно+23°C72 %755 мм1.7 м/с2 %
    09:00Ясно и безоблачно+27°C57 %755 мм2.3 м/с2 %
    12:00Ясно и безоблачно+31°C51 %756 мм7.2 м/с2 %
    15:00Ясно и безоблачно+29°C53 %755 мм10.6 м/с2 %
    18:00Ясно и безоблачно+29°C58 %755 мм9.9 м/с2 %
    21:00Ясно и безоблачно+28°C74 %756 мм5.9 м/с2 %
  • 14июля
    Воскресенье
    +20°
    +31°
    Ясно и безоблачно
    ВремяПогодаТемператураВлажностьДавлениеВетер, м/сВероятность осадков
    00:00Ясно и безоблачно+26°C80 %756 мм0.6 м/с2 %
    03:00Ясно и безоблачно+24°C86 %756 мм1.0 м/с2 %
    06:00Ясно и безоблачно+22°C84 %756 мм2.1 м/с2 %
    09:00Ясно и безоблачно+25°C51 %756 мм1.0 м/с2 %
    12:00Ясно и безоблачно+30°C33 %756 мм6.5 м/с2 %
    15:00Ясно и безоблачно+30°C37 %756 мм11.1 м/с2 %
    18:00Ясно и безоблачно+29°C44 %756 мм10.9 м/с2 %
    21:00Ясно и безоблачно+27°C66 %756 мм6.3 м/с2 %
  • 15июля
    Понедельник
    +21°
    +32°
    Практически безоблачно
    ВремяПогодаТемператураВлажностьДавлениеВетер, м/сВероятность осадков
    00:00Ясно и безоблачно+25°C77 %756 мм0.7 м/с2 %
    03:00Ясно и безоблачно+23°C76 %756 мм1.5 м/с2 %
    06:00Ясно и безоблачно+21°C71 %755 мм2.7 м/с2 %
    09:00Ясно и безоблачно+25°C36 %756 мм0.9 м/с2 %
    12:00Небольшая облачность+32°C32 %756 мм6.9 м/с2 %
    15:00Практически безоблачно+31°C33 %756 мм10.3 м/с2 %
    18:00Ясно и безоблачно+29°C46 %755 мм9.5 м/с2 %
    21:00Ясно и безоблачно+27°C66 %756 мм5.4 м/с2 %
  • 16июля
    Вторник
    +23°
    +33°
    Практически безоблачно
    ВремяПогодаТемператураВлажностьДавлениеВетер, м/сВероятность осадков
    00:00Практически безоблачно+25°C82 %756 мм0.6 м/с2 %
    03:00Облачно с прояснениями+24°C78 %756 мм1.3 м/с2 %
    06:00Небольшая облачность+22°C80 %755 мм2.3 м/с2 %
    09:00Облачно с прояснениями+28°C53 %756 мм2.0 м/с2 %
    12:00Небольшая облачность+32°C37 %756 мм7.5 м/с2 %
    15:00Практически безоблачно+32°C36 %756 мм10.2 м/с2 %
    18:00Облачно с прояснениями+31°C48 %755 мм10.2 м/с2 %
    21:00Небольшая облачность+29°C73 %756 мм6.1 м/с2 %
  • 17июля
    Среда
    +24°
    +33°
    Ясно и безоблачно
    ВремяПогодаТемператураВлажностьДавлениеВетер, м/сВероятность осадков
    00:00Ясно и безоблачно+27°C84 %756 мм1.2 м/с2 %
    03:00Практически безоблачно+26°C87 %756 мм1.6 м/с2 %
    06:00Ясно и безоблачно+24°C77 %756 мм2.5 м/с2 %
    09:00Ясно и безоблачно+28°C51 %756 мм1.0 м/с2 %
    12:00Ясно и безоблачно+33°C46 %757 мм6.5 м/с2 %
    15:00Ясно и безоблачно+32°C47 %756 мм10.1 м/с2 %
    18:00Ясно и безоблачно+32°C50 %756 мм10.4 м/с2 %
    21:00Практически безоблачно+29°C63 %756 мм5.9 м/с2 %
Мы используем cookies
Соглашаюсь